Time;durP1;ratioP1;P1;durP2;ratioP2;P2;SDS_P1;SDS_P2;PMS_P1;PMS_P2;Temp;Humidity;BMP_temperature;BMP_pressure;BME280_temperature;BME280_humidity;BME280_pressure;Samples;Min_cycle;Max_cycle;Signal;HPM_P1;HPM_P2
2022/03/11 00:02:00;;;;;;;10.10;6.00;;;8.70;44.30;;;;;;5069051;28;20673;-83
2022/03/11 00:04:25;;;;;;;6.97;4.33;;;8.70;44.70;;;;;;5072703;28;20187;-83
2022/03/11 00:06:51;;;;;;;7.37;5.00;;;8.70;44.00;;;;;;5073861;28;20236;-84
2022/03/11 00:09:17;;;;;;;8.93;4.60;;;8.70;44.30;;;;;;5075968;28;20182;-83
2022/03/11 00:11:43;;;;;;;9.30;4.30;;;8.70;44.10;;;;;;5093949;28;20197;-83
2022/03/11 00:14:08;;;;;;;8.50;4.17;;;8.80;43.80;;;;;;5094190;28;20412;-84
2022/03/11 00:16:34;;;;;;;8.20;4.73;;;8.80;43.90;;;;;;5095194;28;20205;-83
2022/03/11 00:19:00;;;;;;;7.50;4.07;;;8.80;43.70;;;;;;5094400;28;20178;-83
2022/03/11 00:21:25;;;;;;;10.87;4.83;;;8.80;43.80;;;;;;5094228;28;20212;-83
2022/03/11 00:23:51;;;;;;;7.80;5.10;;;8.80;43.70;;;;;;5093954;28;20182;-83
2022/03/11 00:26:16;;;;;;;10.03;4.80;;;8.80;43.60;;;;;;5093987;28;20182;-84
2022/03/11 00:28:42;;;;;;;6.47;4.23;;;8.90;43.20;;;;;;5093631;28;20240;-84
2022/03/11 00:31:08;;;;;;;8.43;5.40;;;8.90;43.30;;;;;;5093737;28;20707;-83
2022/03/11 00:33:33;;;;;;;8.90;4.40;;;8.90;43.20;;;;;;5093642;28;20182;-83
2022/03/11 00:36:00;;;;;;;5.43;4.63;;;8.90;43.00;;;;;;5093734;28;20477;-83
2022/03/11 00:38:26;;;;;;;8.33;5.00;;;8.90;43.10;;;;;;5094862;28;20552;-83
2022/03/11 00:40:56;;;;;;;8.97;4.80;;;8.90;42.90;;;;;;5093772;28;20459;-84
2022/03/11 00:43:23;;;;;;;5.90;3.93;;;8.90;43.00;;;;;;5095068;28;20202;-82
2022/03/11 00:45:48;;;;;;;9.70;4.30;;;8.80;43.00;;;;;;5094627;28;20415;-84
2022/03/11 00:48:14;;;;;;;8.13;4.43;;;8.80;43.10;;;;;;5094696;28;20408;-84
2022/03/11 00:50:40;;;;;;;9.07;4.53;;;8.80;43.30;;;;;;5093237;28;20202;-83
2022/03/11 00:53:05;;;;;;;8.10;4.33;;;8.80;42.90;;;;;;5093711;28;20243;-84
2022/03/11 00:55:31;;;;;;;7.67;4.60;;;8.80;43.10;;;;;;5094474;28;20186;-84
2022/03/11 00:57:56;;;;;;;6.93;3.83;;;8.80;43.10;;;;;;5093527;28;20170;-83
2022/03/11 01:00:22;;;;;;;6.87;4.63;;;8.80;43.20;;;;;;5093236;28;20704;-83
2022/03/11 01:02:48;;;;;;;7.93;5.03;;;8.80;43.40;;;;;;5094644;28;20171;-82
2022/03/11 01:05:13;;;;;;;8.03;5.10;;;8.70;43.30;;;;;;5093016;28;20958;-83
2022/03/11 01:07:39;;;;;;;7.10;4.40;;;8.70;43.50;;;;;;5093098;28;20599;-84
2022/03/11 01:10:06;;;;;;;7.83;4.47;;;8.70;43.60;;;;;;5093170;28;20194;-83
2022/03/11 01:12:32;;;;;;;7.90;4.63;;;8.60;43.70;;;;;;5093065;28;20224;-84
2022/03/11 01:14:57;;;;;;;6.23;3.93;;;8.60;43.60;;;;;;5093299;28;20452;-83
2022/03/11 01:17:23;;;;;;;10.07;4.40;;;8.60;43.60;;;;;;5092732;28;20191;-84
2022/03/11 01:19:48;;;;;;;9.70;4.60;;;8.50;43.90;;;;;;5092815;28;20576;-83
2022/03/11 01:22:14;;;;;;;11.93;5.03;;;8.50;44.00;;;;;;5093004;28;20174;-84
2022/03/11 01:24:40;;;;;;;7.13;4.67;;;8.50;44.00;;;;;;5091679;28;20216;-84
2022/03/11 01:27:06;;;;;;;6.63;5.30;;;8.50;44.20;;;;;;5092291;28;20416;-83
2022/03/11 01:29:31;;;;;;;5.23;3.50;;;8.50;44.30;;;;;;5094141;28;20200;-84
2022/03/11 01:31:57;;;;;;;6.43;3.90;;;8.50;44.40;;;;;;5092688;28;20218;-83
2022/03/11 01:34:23;;;;;;;6.40;4.40;;;8.50;44.20;;;;;;5092739;28;20217;-83
2022/03/11 01:36:48;;;;;;;8.17;4.50;;;8.40;44.40;;;;;;5092244;28;20178;-84
2022/03/11 01:39:14;;;;;;;6.60;4.00;;;8.50;44.50;;;;;;5092408;28;20214;-83
2022/03/11 01:41:40;;;;;;;6.50;4.37;;;8.40;44.70;;;;;;5092326;28;20215;-84
2022/03/11 01:44:07;;;;;;;6.70;4.47;;;8.40;44.70;;;;;;5092340;28;20404;-83
2022/03/11 01:46:34;;;;;;;8.47;4.67;;;8.30;44.80;;;;;;5092045;28;20436;-83
2022/03/11 01:49:01;;;;;;;7.63;4.20;;;8.40;44.90;;;;;;5092384;28;20501;-83
2022/03/11 01:51:27;;;;;;;6.80;4.13;;;8.30;45.30;;;;;;5092456;28;21022;-83
2022/03/11 01:53:54;;;;;;;7.20;4.83;;;8.30;45.40;;;;;;5092484;28;20424;-83
2022/03/11 01:56:20;;;;;;;9.83;5.00;;;8.30;45.30;;;;;;5091943;28;20432;-83
2022/03/11 01:58:51;;;;;;;8.73;4.40;;;8.30;45.70;;;;;;5091837;28;20413;-83
2022/03/11 02:01:17;;;;;;;11.43;4.30;;;8.30;45.60;;;;;;5091162;28;21014;-83
2022/03/11 02:03:43;;;;;;;6.53;4.27;;;8.30;46.00;;;;;;5092037;28;20515;-84
2022/03/11 02:06:09;;;;;;;12.70;4.50;;;8.30;46.00;;;;;;5091913;28;20498;-84
2022/03/11 02:08:35;;;;;;;6.27;4.60;;;8.30;46.00;;;;;;5091764;28;20415;-83
2022/03/11 02:11:02;;;;;;;8.43;4.77;;;8.30;46.00;;;;;;5092012;28;20442;-83
2022/03/11 02:13:27;;;;;;;7.30;4.43;;;8.20;46.20;;;;;;5092025;28;20424;-84
2022/03/11 02:15:53;;;;;;;5.67;4.37;;;8.20;46.60;;;;;;5093011;28;20503;-83
2022/03/11 02:18:19;;;;;;;8.67;4.67;;;8.20;46.60;;;;;;5091693;28;20239;-83
2022/03/11 02:20:48;;;;;;;7.47;4.37;;;8.20;46.70;;;;;;5091745;28;20210;-83
2022/03/11 02:23:15;;;;;;;9.53;4.63;;;8.20;46.80;;;;;;5091832;28;20414;-83
2022/03/11 02:25:41;;;;;;;6.07;3.80;;;8.20;47.10;;;;;;5091364;28;20450;-83
2022/03/11 02:28:07;;;;;;;8.47;4.53;;;8.10;47.40;;;;;;5091441;28;20788;-83
2022/03/11 02:30:32;;;;;;;6.03;4.03;;;8.10;47.70;;;;;;5091353;28;20441;-83
2022/03/11 02:32:58;;;;;;;6.77;4.57;;;8.00;47.80;;;;;;5091668;28;20217;-83
2022/03/11 02:35:24;;;;;;;6.17;3.93;;;8.00;48.00;;;;;;5091452;28;20174;-84
2022/03/11 02:37:49;;;;;;;9.53;4.40;;;8.00;48.10;;;;;;5091280;28;20181;-83
2022/03/11 02:40:15;;;;;;;7.13;4.20;;;7.90;48.20;;;;;;5091332;28;20213;-83
2022/03/11 02:42:40;;;;;;;6.23;4.27;;;7.90;48.50;;;;;;5091402;28;20177;-82
2022/03/11 02:45:07;;;;;;;11.47;5.00;;;7.90;48.90;;;;;;5091845;28;20178;-84
2022/03/11 02:47:33;;;;;;;7.17;4.73;;;7.90;48.80;;;;;;5091171;28;20189;-83
2022/03/11 02:49:59;;;;;;;6.07;4.17;;;7.90;48.60;;;;;;5091098;28;20448;-83
2022/03/11 02:52:26;;;;;;;8.30;5.00;;;7.90;49.30;;;;;;5091454;28;20182;-84
2022/03/11 02:54:52;;;;;;;6.73;3.70;;;7.80;49.10;;;;;;5091251;28;20663;-83
2022/03/11 02:57:18;;;;;;;12.00;5.50;;;7.90;49.40;;;;;;5092126;28;20420;-83
2022/03/11 02:59:46;;;;;;;7.83;5.30;;;7.90;49.40;;;;;;5092030;28;20472;-83
2022/03/11 03:02:12;;;;;;;5.73;4.43;;;7.80;49.60;;;;;;5091104;28;20442;-83
2022/03/11 03:04:38;;;;;;;8.67;5.07;;;7.80;50.30;;;;;;5092434;28;20412;-83
2022/03/11 03:07:05;;;;;;;7.70;4.87;;;7.80;50.30;;;;;;5090430;28;20422;-84
2022/03/11 03:09:30;;;;;;;6.60;4.17;;;7.80;50.60;;;;;;5091026;28;20992;-83
2022/03/11 03:11:56;;;;;;;12.80;5.10;;;7.80;50.60;;;;;;5090842;28;20411;-83
2022/03/11 03:14:22;;;;;;;9.33;5.03;;;7.80;50.80;;;;;;5090905;28;20177;-83
2022/03/11 03:16:47;;;;;;;7.37;4.90;;;7.70;50.80;;;;;;5090514;28;20272;-84
2022/03/11 03:19:13;;;;;;;8.83;4.83;;;7.80;50.80;;;;;;5090872;28;20212;-84
2022/03/11 03:21:39;;;;;;;9.63;6.03;;;7.80;51.00;;;;;;5091988;28;20203;-83
2022/03/11 03:24:08;;;;;;;9.23;5.50;;;7.70;51.60;;;;;;5092117;28;20180;-83
2022/03/11 03:26:33;;;;;;;8.53;5.90;;;7.70;51.90;;;;;;5091509;28;20197;-83
2022/03/11 03:28:59;;;;;;;13.40;5.50;;;7.70;52.30;;;;;;5091965;28;20922;-84
2022/03/11 03:31:24;;;;;;;10.20;5.50;;;7.70;52.20;;;;;;5091952;28;20663;-83
2022/03/11 03:33:51;;;;;;;9.90;5.33;;;7.70;52.30;;;;;;5090750;28;20606;-83
2022/03/11 03:36:17;;;;;;;9.47;5.57;;;7.70;52.40;;;;;;5090554;28;20177;-83
2022/03/11 03:38:42;;;;;;;7.10;4.50;;;7.60;52.40;;;;;;5089600;28;20417;-83
2022/03/11 03:41:08;;;;;;;14.13;6.30;;;7.60;52.50;;;;;;5090510;28;20297;-83
2022/03/11 03:43:34;;;;;;;9.03;5.77;;;7.60;53.20;;;;;;5090489;28;20178;-83
2022/03/11 03:45:59;;;;;;;8.53;4.70;;;7.60;53.10;;;;;;5092093;28;20664;-84
2022/03/11 03:48:25;;;;;;;7.90;5.20;;;7.60;53.40;;;;;;5090327;28;20202;-83
2022/03/11 03:50:51;;;;;;;10.83;5.60;;;7.60;53.80;;;;;;5090466;28;20728;-83
2022/03/11 03:53:16;;;;;;;7.90;5.33;;;7.50;54.10;;;;;;5091788;28;20177;-84
2022/03/11 03:55:42;;;;;;;8.23;4.93;;;7.50;54.20;;;;;;5090506;28;20187;-84
2022/03/11 03:58:08;;;;;;;7.93;5.00;;;7.50;54.30;;;;;;5090107;28;20652;-83
2022/03/11 04:00:33;;;;;;;8.87;5.17;;;7.40;54.60;;;;;;5090277;28;20702;-83
2022/03/11 04:02:59;;;;;;;11.37;6.53;;;7.40;54.80;;;;;;5091661;28;20218;-84
2022/03/11 04:05:24;;;;;;;7.47;5.23;;;7.40;55.00;;;;;;5090420;28;20852;-84
2022/03/11 04:07:50;;;;;;;8.13;4.70;;;7.40;55.20;;;;;;5090068;28;20181;-84
2022/03/11 04:10:18;;;;;;;11.97;5.70;;;7.40;55.50;;;;;;5090329;28;20206;-83
2022/03/11 04:12:43;;;;;;;8.50;4.93;;;7.30;55.80;;;;;;5090500;28;20661;-83
2022/03/11 04:15:10;;;;;;;7.57;4.90;;;7.30;56.20;;;;;;5090262;28;20419;-84
2022/03/11 04:17:35;;;;;;;9.50;5.67;;;7.30;56.90;;;;;;5091470;28;20174;-84
2022/03/11 04:20:01;;;;;;;8.83;4.60;;;7.20;57.00;;;;;;5090106;28;20831;-84
2022/03/11 04:22:26;;;;;;;10.67;5.60;;;7.20;57.30;;;;;;5090541;28;20250;-84
2022/03/11 04:24:52;;;;;;;13.03;5.63;;;7.10;58.00;;;;;;5090076;28;20184;-83
2022/03/11 04:27:18;;;;;;;12.90;5.63;;;7.10;58.20;;;;;;5091031;28;20174;-83
2022/03/11 04:29:43;;;;;;;9.30;5.37;;;7.10;58.60;;;;;;5090061;28;20457;-82
2022/03/11 04:32:09;;;;;;;10.40;6.00;;;7.00;58.90;;;;;;5090035;28;20184;-84
2022/03/11 04:34:35;;;;;;;9.50;5.50;;;7.10;58.90;;;;;;5090257;28;20187;-83
2022/03/11 04:37:00;;;;;;;10.50;5.30;;;7.00;58.90;;;;;;5091055;28;20180;-85
2022/03/11 04:39:26;;;;;;;11.73;6.20;;;7.00;59.10;;;;;;5089873;28;20216;-83
2022/03/11 04:41:55;;;;;;;8.60;5.77;;;7.00;59.20;;;;;;5091842;28;20251;-82
2022/03/11 04:44:21;;;;;;;9.63;6.00;;;7.00;59.80;;;;;;5090294;28;20410;-83
2022/03/11 04:46:47;;;;;;;9.00;5.83;;;6.90;60.10;;;;;;5089680;28;20429;-83
2022/03/11 04:49:12;;;;;;;8.60;5.13;;;6.90;61.00;;;;;;5090822;28;20247;-83
2022/03/11 04:51:42;;;;;;;9.97;5.70;;;6.90;60.80;;;;;;5093383;28;20457;-83
2022/03/11 04:54:08;;;;;;;10.37;6.20;;;6.90;61.30;;;;;;5093532;28;20205;-83
2022/03/11 04:56:34;;;;;;;12.83;6.63;;;6.90;62.40;;;;;;5093068;28;20933;-83
2022/03/11 04:58:59;;;;;;;10.17;5.50;;;6.80;63.50;;;;;;5093493;28;20490;-83
2022/03/11 05:01:25;;;;;;;11.27;6.53;;;6.80;63.90;;;;;;5093072;28;20994;-83
2022/03/11 05:03:51;;;;;;;11.17;5.80;;;6.80;64.30;;;;;;5093297;28;20171;-83
2022/03/11 05:06:17;;;;;;;11.37;6.23;;;6.80;64.90;;;;;;5094492;28;20191;-83
2022/03/11 05:08:43;;;;;;;8.43;5.70;;;6.70;65.00;;;;;;5093042;28;20424;-83
2022/03/11 05:11:08;;;;;;;12.77;6.60;;;6.70;66.20;;;;;;5094378;28;20193;-84
2022/03/11 05:13:34;;;;;;;11.00;6.00;;;6.60;66.20;;;;;;5093307;28;20467;-84
2022/03/11 05:16:00;;;;;;;10.33;6.00;;;6.60;66.90;;;;;;5093000;28;20652;-83
2022/03/11 05:18:26;;;;;;;9.47;5.07;;;6.60;67.30;;;;;;5094369;28;20179;-83
2022/03/11 05:20:51;;;;;;;9.47;6.47;;;6.60;68.50;;;;;;5088608;28;20207;-83
2022/03/11 05:23:17;;;;;;;16.27;6.47;;;6.50;68.40;;;;;;5092937;28;20177;-82
2022/03/11 05:25:43;;;;;;;8.33;6.90;;;6.50;68.80;;;;;;5092775;28;20175;-83
2022/03/11 05:28:09;;;;;;;10.07;5.83;;;6.50;69.40;;;;;;5093887;28;20547;-83
2022/03/11 05:30:36;;;;;;;10.20;6.57;;;6.50;70.00;;;;;;5092638;28;20439;-83
2022/03/11 05:33:03;;;;;;;10.17;6.73;;;6.40;71.30;;;;;;5092544;28;20233;-83
2022/03/11 05:35:29;;;;;;;12.33;6.90;;;6.40;71.30;;;;;;5092669;28;20430;-83
2022/03/11 05:37:54;;;;;;;14.07;6.73;;;6.30;73.20;;;;;;5092531;28;20910;-84
2022/03/11 05:40:20;;;;;;;12.43;7.00;;;6.30;73.30;;;;;;5092541;28;20264;-84
2022/03/11 05:42:45;;;;;;;10.60;6.10;;;6.30;73.00;;;;;;5093852;28;20179;-83
2022/03/11 05:45:12;;;;;;;12.67;6.80;;;6.30;74.20;;;;;;5093845;28;20166;-84
2022/03/11 05:47:38;;;;;;;12.27;6.37;;;6.30;75.80;;;;;;5092300;28;20172;-83
2022/03/11 05:50:05;;;;;;;14.53;7.53;;;6.30;75.80;;;;;;5092534;28;21032;-83
2022/03/11 05:52:30;;;;;;;12.87;6.33;;;6.30;75.80;;;;;;5093634;28;20185;-83
2022/03/11 05:54:56;;;;;;;10.97;7.20;;;6.20;76.40;;;;;;5092415;28;20504;-83
2022/03/11 05:57:21;;;;;;;14.23;6.77;;;6.20;77.40;;;;;;5092357;28;20184;-83
2022/03/11 05:59:47;;;;;;;8.23;6.37;;;6.20;78.40;;;;;;5092013;28;20214;-83
2022/03/11 06:02:13;;;;;;;13.63;7.90;;;6.20;78.80;;;;;;5091859;28;20261;-84
2022/03/11 06:04:38;;;;;;;12.27;7.40;;;6.10;79.70;;;;;;5092104;28;20694;-83
2022/03/11 06:07:04;;;;;;;10.57;6.40;;;6.20;80.20;;;;;;5091741;28;20171;-83
2022/03/11 06:09:30;;;;;;;15.40;7.27;;;6.10;81.10;;;;;;5107065;23;20240;-63
2022/03/11 06:11:56;;;;;;;13.60;7.30;;;6.10;81.20;;;;;;5091214;28;20789;-62
2022/03/11 06:14:22;;;;;;;14.07;7.33;;;6.10;83.10;;;;;;5083262;28;20174;-64
2022/03/11 06:16:48;;;;;;;14.73;7.33;;;6.10;83.00;;;;;;5091582;28;20428;-64
2022/03/11 06:19:14;;;;;;;11.30;7.43;;;6.10;83.90;;;;;;5091737;28;20183;-64
2022/03/11 06:21:39;;;;;;;13.40;7.60;;;6.10;84.30;;;;;;5091696;28;20214;-64
2022/03/11 06:24:06;;;;;;;11.33;6.40;;;6.10;84.80;;;;;;5091772;28;20423;-65
2022/03/11 06:26:32;;;;;;;10.57;7.70;;;6.10;85.40;;;;;;5091390;28;20281;-64
2022/03/11 06:28:57;;;;;;;10.47;6.87;;;6.10;86.40;;;;;;5091630;28;20500;-65
2022/03/11 06:31:23;;;;;;;10.77;6.50;;;6.10;87.60;;;;;;5091452;28;20228;-65
2022/03/11 06:33:49;;;;;;;12.37;8.23;;;6.10;86.20;;;;;;5091626;28;20285;-62
2022/03/11 06:36:14;;;;;;;16.97;8.03;;;6.10;86.50;;;;;;5091094;28;20734;-64
2022/03/11 06:38:40;;;;;;;10.23;7.60;;;6.10;88.00;;;;;;5091319;28;20210;-64
2022/03/11 06:41:06;;;;;;;12.13;7.80;;;6.10;87.20;;;;;;5091245;28;20202;-64
2022/03/11 06:43:32;;;;;;;16.03;8.37;;;6.10;88.30;;;;;;5091459;28;20202;-64
2022/03/11 06:45:58;;;;;;;14.77;8.53;;;6.10;87.80;;;;;;5091095;28;20209;-62
2022/03/11 06:48:24;;;;;;;13.30;8.00;;;6.10;88.50;;;;;;5091150;28;20503;-65
2022/03/11 06:50:50;;;;;;;11.03;7.43;;;6.20;88.60;;;;;;5091172;28;20266;-64
2022/03/11 06:53:16;;;;;;;15.90;8.90;;;6.20;89.70;;;;;;5091092;28;20182;-62
2022/03/11 06:55:42;;;;;;;9.77;7.60;;;6.20;89.20;;;;;;5091101;28;20521;-65
2022/03/11 06:58:08;;;;;;;13.10;8.10;;;6.20;89.30;;;;;;5090875;28;20416;-65
2022/03/11 07:00:33;;;;;;;14.30;8.43;;;6.30;88.90;;;;;;5091285;28;20452;-64
2022/03/11 07:02:59;;;;;;;12.47;7.63;;;6.30;87.90;;;;;;5090899;28;20223;-63
2022/03/11 07:05:25;;;;;;;21.67;9.10;;;6.20;88.90;;;;;;5091006;28;20182;-64
2022/03/11 07:07:51;;;;;;;14.10;8.93;;;6.20;89.60;;;;;;5090538;28;20203;-64
2022/03/11 07:10:18;;;;;;;12.53;9.13;;;6.20;90.10;;;;;;5090802;28;20943;-64
2022/03/11 07:12:43;;;;;;;15.47;8.77;;;6.30;90.30;;;;;;5089852;28;20179;-64
2022/03/11 07:15:10;;;;;;;14.10;8.30;;;6.30;89.40;;;;;;5090769;28;20428;-64
2022/03/11 07:17:36;;;;;;;16.50;8.67;;;6.40;89.80;;;;;;5090753;28;20473;-64
2022/03/11 07:20:04;;;;;;;13.23;8.47;;;6.40;88.80;;;;;;5090843;28;20455;-64
2022/03/11 07:22:31;;;;;;;12.93;8.47;;;6.40;89.00;;;;;;5090747;28;20452;-65
2022/03/11 07:24:58;;;;;;;13.73;8.23;;;6.40;87.50;;;;;;5090770;28;20422;-65
2022/03/11 07:27:24;;;;;;;13.53;8.03;;;6.40;88.40;;;;;;5090610;28;20425;-63
2022/03/11 07:29:50;;;;;;;16.60;8.90;;;6.50;87.90;;;;;;5090753;28;20420;-63
2022/03/11 07:32:17;;;;;;;13.13;7.67;;;6.40;87.80;;;;;;5090800;28;20918;-63
2022/03/11 07:34:43;;;;;;;16.60;9.20;;;6.50;88.70;;;;;;5090513;28;20421;-64
2022/03/11 07:37:12;;;;;;;15.73;8.57;;;6.50;86.80;;;;;;5090408;28;20543;-64
2022/03/11 07:39:39;;;;;;;17.13;8.90;;;6.60;87.40;;;;;;5090465;28;20771;-65
2022/03/11 07:42:05;;;;;;;15.70;9.50;;;6.70;86.80;;;;;;5090847;28;20413;-65
2022/03/11 07:44:33;;;;;;;17.50;9.10;;;6.70;86.50;;;;;;5090532;28;20777;-65
2022/03/11 07:46:59;;;;;;;14.80;7.70;;;6.80;85.50;;;;;;5090236;28;20443;-63
2022/03/11 07:49:25;;;;;;;16.77;9.70;;;6.90;85.50;;;;;;5090391;28;20415;-63
2022/03/11 07:51:50;;;;;;;15.90;8.07;;;6.90;85.20;;;;;;5090462;28;20963;-64
2022/03/11 07:54:16;;;;;;;16.03;9.20;;;6.80;84.10;;;;;;5090571;28;20425;-65
2022/03/11 07:56:42;;;;;;;17.33;9.30;;;6.90;84.30;;;;;;5090084;28;20206;-62
2022/03/11 07:59:08;;;;;;;14.17;9.43;;;7.00;84.80;;;;;;5090429;28;20425;-64
2022/03/11 08:01:34;;;;;;;14.60;7.87;;;7.00;83.60;;;;;;5090273;28;20297;-66
2022/03/11 08:04:00;;;;;;;11.13;7.10;;;7.10;84.60;;;;;;5090397;28;20180;-62
2022/03/11 08:06:26;;;;;;;14.33;7.73;;;7.20;83.60;;;;;;5090017;28;20446;-65
2022/03/11 08:08:51;;;;;;;16.17;9.40;;;7.30;82.40;;;;;;5090350;28;20521;-64
2022/03/11 08:11:17;;;;;;;13.20;8.13;;;7.30;81.80;;;;;;5090337;28;20262;-64
2022/03/11 08:13:43;;;;;;;18.53;8.40;;;7.40;81.30;;;;;;5090403;28;20189;-64
2022/03/11 08:16:09;;;;;;;18.33;9.63;;;7.40;81.10;;;;;;5090144;28;20281;-65
2022/03/11 08:18:36;;;;;;;13.10;8.77;;;7.50;80.70;;;;;;5090056;28;20858;-63
2022/03/11 08:21:03;;;;;;;16.33;8.10;;;7.60;80.50;;;;;;5090097;28;20471;-64
2022/03/11 08:23:29;;;;;;;17.70;8.60;;;7.70;79.70;;;;;;5090259;28;20419;-65
2022/03/11 08:25:54;;;;;;;14.00;8.20;;;7.70;77.70;;;;;;5093726;28;20462;-65
2022/03/11 08:28:22;;;;;;;13.27;8.50;;;7.80;78.30;;;;;;5093785;28;20436;-62
2022/03/11 08:30:48;;;;;;;14.33;8.47;;;7.80;77.90;;;;;;5094070;28;20534;-64
2022/03/11 08:33:20;;;;;;;14.67;8.70;;;7.90;76.90;;;;;;5093936;28;20435;-63
2022/03/11 08:35:47;;;;;;;17.50;8.63;;;8.00;78.00;;;;;;5093818;28;20481;-64
2022/03/11 08:38:13;;;;;;;15.90;9.40;;;8.00;75.70;;;;;;5093590;28;20471;-64
2022/03/11 08:40:39;;;;;;;13.17;9.03;;;8.00;75.20;;;;;;5093802;28;20466;-64
2022/03/11 08:43:05;;;;;;;13.57;8.00;;;8.00;75.20;;;;;;5093517;28;20449;-65
2022/03/11 08:45:32;;;;;;;13.67;8.00;;;8.10;74.50;;;;;;5093674;28;20442;-63
2022/03/11 08:47:58;;;;;;;14.70;7.93;;;8.00;73.70;;;;;;5093346;28;20201;-64
2022/03/11 08:50:24;;;;;;;18.23;9.57;;;8.10;74.70;;;;;;5093842;28;20484;-65
2022/03/11 08:52:51;;;;;;;17.93;8.93;;;8.20;74.90;;;;;;5093512;28;20791;-64
2022/03/11 08:55:17;;;;;;;15.70;9.37;;;8.20;72.80;;;;;;5089577;28;20429;-64
2022/03/11 08:57:49;;;;;;;12.03;8.60;;;8.30;73.00;;;;;;5084620;28;20467;-64
2022/03/11 09:00:16;;;;;;;16.93;8.10;;;8.40;73.40;;;;;;5093005;28;20205;-62
2022/03/11 09:02:43;;;;;;;16.57;8.90;;;8.50;73.10;;;;;;5093274;28;20793;-62
2022/03/11 09:05:10;;;;;;;16.80;8.40;;;8.70;72.80;;;;;;5092526;28;20412;-62
2022/03/11 09:07:35;;;;;;;12.33;8.10;;;8.90;71.50;;;;;;5084655;28;20522;-64
2022/03/11 09:10:05;;;;;;;13.90;8.40;;;9.00;70.30;;;;;;5089319;28;20581;-62
2022/03/11 09:12:31;;;;;;;16.47;8.77;;;9.10;70.20;;;;;;5092907;28;20403;-64
2022/03/11 09:14:57;;;;;;;12.77;8.67;;;9.10;68.30;;;;;;5092778;28;20413;-64
2022/03/11 09:17:26;;;;;;;13.17;8.70;;;9.20;68.90;;;;;;5092179;28;20276;-64
2022/03/11 09:19:52;;;;;;;15.87;9.80;;;9.30;68.10;;;;;;5092779;28;20451;-64
2022/03/11 09:22:21;;;;;;;15.27;8.90;;;9.40;67.60;;;;;;5091977;28;20472;-64
2022/03/11 09:24:47;;;;;;;11.00;8.17;;;9.50;67.50;;;;;;5091886;28;20174;-64
2022/03/11 09:27:13;;;;;;;14.10;8.83;;;9.60;68.40;;;;;;5078395;28;20472;-64
2022/03/11 09:29:39;;;;;;;12.90;8.30;;;9.70;67.60;;;;;;5092169;28;20171;-64
2022/03/11 09:32:07;;;;;;;13.37;9.40;;;9.80;66.50;;;;;;5092317;28;20409;-65
2022/03/11 09:34:37;;;;;;;11.53;7.80;;;9.90;65.80;;;;;;5092508;28;20416;-65
2022/03/11 09:37:03;;;;;;;12.70;8.30;;;9.90;65.30;;;;;;5091155;28;20963;-65
2022/03/11 09:39:29;;;;;;;13.20;8.20;;;10.00;65.30;;;;;;5092155;28;20412;-64
2022/03/11 09:41:55;;;;;;;11.03;8.77;;;10.20;63.80;;;;;;5091718;28;21009;-65
2022/03/11 09:44:21;;;;;;;16.40;9.03;;;10.20;62.10;;;;;;5092242;28;20227;-65
2022/03/11 09:46:47;;;;;;;13.30;8.80;;;10.30;62.40;;;;;;5091889;28;20436;-65
2022/03/11 09:49:17;;;;;;;14.17;9.37;;;10.30;61.50;;;;;;5092072;28;20462;-64
2022/03/11 09:51:45;;;;;;;12.30;8.43;;;10.40;61.00;;;;;;5092039;28;20459;-64
2022/03/11 09:54:12;;;;;;;13.93;8.30;;;10.40;61.00;;;;;;5091572;28;20424;-62
2022/03/11 09:56:39;;;;;;;12.77;8.23;;;10.40;60.60;;;;;;5091798;28;20494;-64
2022/03/11 09:59:09;;;;;;;15.47;7.73;;;10.50;60.00;;;;;;5091970;28;20469;-64
2022/03/11 10:01:35;;;;;;;15.40;9.93;;;10.50;60.90;;;;;;5092055;28;20464;-63
2022/03/11 10:04:06;;;;;;;12.03;8.50;;;10.80;61.20;;;;;;5091864;28;20405;-66
2022/03/11 10:06:58;;;;;;;17.23;9.27;;;11.10;60.70;;;;;;5091212;28;20446;-64
2022/03/11 10:09:24;;;;;;;15.70;8.43;;;11.40;58.50;;;;;;5087863;28;20526;-64
2022/03/11 10:11:52;;;;;;;12.20;8.10;;;12.60;59.30;;;;;;5091750;28;20495;-62
2022/03/11 10:14:27;;;;;;;17.70;9.03;;;14.90;55.70;;;;;;5091802;28;20178;-64
2022/03/11 10:16:53;;;;;;;11.33;8.97;;;16.80;50.70;;;;;;5091265;28;20435;-62
2022/03/11 10:19:20;;;;;;;15.20;9.50;;;18.30;45.90;;;;;;5091203;28;20424;-64
2022/03/11 10:21:50;;;;;;;15.40;9.30;;;20.70;41.10;;;;;;5091371;28;20206;-65
2022/03/11 10:24:18;;;;;;;14.87;9.40;;;20.70;41.60;;;;;;5091575;28;20834;-65
2022/03/11 10:26:50;;;;;;;14.10;9.87;;;21.80;39.10;;;;;;5089280;28;20479;-65
2022/03/11 10:29:22;;;;;;;12.10;9.20;;;22.80;37.30;;;;;;5082461;28;20971;-64
2022/03/11 10:31:51;;;;;;;13.07;9.17;;;23.40;35.40;;;;;;5090508;28;20943;-66
2022/03/11 10:34:29;;;;;;;11.47;10.20;;;24.50;34.60;;;;;;5090291;28;20440;-65
2022/03/11 10:36:58;;;;;;;13.60;9.77;;;25.20;32.20;;;;;;5090943;28;20440;-65
2022/03/11 10:39:36;;;;;;;14.00;10.20;;;26.10;31.10;;;;;;5090517;28;20813;-65
2022/03/11 10:42:17;;;;;;;12.97;10.00;;;26.50;29.20;;;;;;5090965;28;20443;-65
2022/03/11 10:44:56;;;;;;;15.23;10.17;;;25.60;28.80;;;;;;5070849;28;20421;-65
2022/03/11 10:47:30;;;;;;;12.30;9.70;;;24.60;28.60;;;;;;5070138;28;20433;-65
2022/03/11 10:50:17;;;;;;;15.70;10.77;;;24.10;29.00;;;;;;5071014;28;20838;-65
2022/03/11 10:52:45;;;;;;;12.60;9.37;;;24.90;30.60;;;;;;5070666;28;20418;-66
2022/03/11 10:55:23;;;;;;;13.43;9.60;;;25.10;28.90;;;;;;5070194;28;20416;-66
2022/03/11 10:57:52;;;;;;;16.03;9.83;;;25.50;29.30;;;;;;5070492;28;21008;-65
2022/03/11 11:00:32;;;;;;;13.57;10.03;;;25.20;28.40;;;;;;5070391;28;21036;-65
2022/03/11 11:02:59;;;;;;;12.30;9.00;;;25.60;28.90;;;;;;5070667;28;20512;-66
2022/03/11 11:05:29;;;;;;;11.50;7.90;;;26.80;28.20;;;;;;5070459;28;20429;-67
2022/03/11 11:07:57;;;;;;;14.20;10.10;;;26.00;27.70;;;;;;5088022;28;20444;-65
2022/03/11 11:10:24;;;;;;;14.30;10.10;;;25.60;27.70;;;;;;5090569;28;20452;-65
2022/03/11 11:12:50;;;;;;;15.63;9.30;;;25.70;28.20;;;;;;5090654;28;20801;-66
2022/03/11 11:15:17;;;;;;;14.90;9.60;;;25.70;27.70;;;;;;5090735;28;20437;-65
2022/03/11 11:17:45;;;;;;;11.27;9.13;;;26.40;27.50;;;;;;5090421;28;20436;-65
2022/03/11 11:20:25;;;;;;;15.27;8.90;;;27.20;27.50;;;;;;5090761;28;20464;-64
2022/03/11 11:22:53;;;;;;;14.00;9.27;;;26.90;26.50;;;;;;5084724;28;20524;-65
2022/03/11 11:25:22;;;;;;;11.97;9.00;;;26.40;27.20;;;;;;5081464;28;20432;-65
2022/03/11 11:27:49;;;;;;;12.63;9.40;;;25.90;27.00;;;;;;5090018;28;20816;-65
2022/03/11 11:30:18;;;;;;;12.97;8.93;;;25.60;27.00;;;;;;5090043;28;20424;-66
2022/03/11 11:32:44;;;;;;;11.90;8.70;;;25.90;28.20;;;;;;5090462;28;21004;-65
2022/03/11 11:35:30;;;;;;;13.30;9.33;;;25.90;27.10;;;;;;5090574;28;20503;-66
2022/03/11 11:38:02;;;;;;;14.60;10.60;;;25.30;27.20;;;;;;5090218;28;20554;-65
2022/03/11 11:40:36;;;;;;;11.67;8.43;;;25.50;27.30;;;;;;5089700;28;20492;-65
2022/03/11 11:43:13;;;;;;;11.43;8.97;;;26.30;27.70;;;;;;5090335;28;20482;-65
2022/03/11 11:45:46;;;;;;;13.00;9.40;;;27.50;27.20;;;;;;5070202;28;20531;-65
2022/03/11 11:51:00;;;;;;;18.53;9.30;;;27.80;26.50;;;;;;5091485;28;20503;-65
2022/03/11 11:53:42;;;;;;;11.50;8.27;;;27.40;26.10;;;;;;5090223;28;20416;-65
2022/03/11 11:56:28;;;;;;;11.27;9.50;;;27.20;25.90;;;;;;5090346;28;20440;-65
2022/03/11 11:58:56;;;;;;;15.10;9.70;;;26.50;26.10;;;;;;5090565;28;20424;-65
2022/03/11 12:01:42;;;;;;;14.00;9.60;;;26.20;26.70;;;;;;5094402;28;20460;-65
2022/03/11 12:04:35;;;;;;;11.13;9.40;;;25.50;27.00;;;;;;5094649;28;20427;-64
2022/03/11 12:07:06;;;;;;;12.67;9.53;;;25.00;27.20;;;;;;5090913;28;20436;-65
2022/03/11 12:09:58;;;;;;;13.83;8.87;;;23.50;27.70;;;;;;5094141;28;20440;-65
2022/03/11 12:12:29;;;;;;;12.37;9.10;;;21.80;28.10;;;;;;5094418;28;20428;-65
2022/03/11 12:15:01;;;;;;;12.63;9.80;;;20.80;29.30;;;;;;5094108;28;20925;-65
2022/03/11 12:17:36;;;;;;;13.60;8.10;;;21.20;29.70;;;;;;5093920;28;20432;-64
2022/03/11 12:20:45;;;;;;;11.33;7.97;;;22.10;29.90;;;;;;5094017;28;20516;-65
2022/03/11 12:23:14;;;;;;;12.27;8.33;;;21.80;28.90;;;;;;5094177;28;20756;-64
2022/03/11 12:25:55;;;;;;;12.30;8.57;;;20.80;29.40;;;;;;5093782;28;20400;-65
2022/03/11 12:28:27;;;;;;;14.23;8.87;;;21.70;29.80;;;;;;5093696;28;20422;-65
2022/03/11 12:30:58;;;;;;;13.97;9.40;;;21.80;29.40;;;;;;5093899;28;20784;-66
2022/03/11 12:33:45;;;;;;;14.60;9.17;;;21.20;29.70;;;;;;5093871;28;20412;-65
2022/03/11 12:36:13;;;;;;;11.83;8.57;;;22.20;29.60;;;;;;5093820;28;20469;-65
2022/03/11 12:38:39;;;;;;;12.87;8.60;;;22.20;29.30;;;;;;5093634;28;20782;-65
2022/03/11 12:41:13;;;;;;;15.53;9.63;;;22.90;29.20;;;;;;5093650;28;20468;-65
2022/03/11 12:43:40;;;;;;;12.97;8.33;;;23.40;28.60;;;;;;5093647;28;20442;-65
2022/03/11 12:46:08;;;;;;;11.33;8.67;;;24.00;28.60;;;;;;5093524;28;20442;-65
2022/03/11 12:48:39;;;;;;;15.40;9.00;;;23.30;28.00;;;;;;5093371;28;20465;-65
2022/03/11 12:51:10;;;;;;;16.03;10.53;;;21.90;28.50;;;;;;5093664;28;20428;-65
2022/03/11 12:53:37;;;;;;;13.13;8.73;;;21.40;29.20;;;;;;5093412;28;20425;-66